createdAt,value
2022-07-30T00:03:23.344Z,100703.00
2022-07-30T00:07:26.483Z,100691.94
2022-07-30T00:11:29.542Z,100695.47
2022-07-30T00:15:34.035Z,100701.88
2022-07-30T00:19:37.075Z,100706.22
2022-07-30T00:23:40.175Z,100700.19
2022-07-30T00:28:03.158Z,100701.19
2022-07-30T00:32:07.924Z,100697.59
2022-07-30T00:36:10.988Z,100700.00
2022-07-30T00:40:14.032Z,100710.81
2022-07-30T00:44:17.078Z,100706.72
2022-07-30T00:48:21.431Z,100709.38
2022-07-30T00:52:24.568Z,100711.63
2022-07-30T00:56:27.686Z,100708.88
2022-07-30T01:06:31.941Z,100711.03
2022-07-30T01:10:35.267Z,100707.94
2022-07-30T01:14:39.178Z,100710.28
2022-07-30T01:19:01.738Z,100710.59
2022-07-30T01:23:14.211Z,100711.34
2022-07-30T01:27:20.770Z,100706.91
2022-07-30T01:31:27.150Z,100715.31
2022-07-30T01:35:33.327Z,100713.31
2022-07-30T01:39:37.359Z,100714.97
2022-07-30T01:43:43.080Z,100713.91
2022-07-30T01:47:47.695Z,100708.75
2022-07-30T01:51:53.635Z,100712.59
2022-07-30T01:55:57.573Z,100721.34
2022-07-30T02:00:05.105Z,100718.72
2022-07-30T02:04:19.736Z,100723.41
2022-07-30T02:08:28.977Z,100725.31
2022-07-30T02:12:34.878Z,100725.34
2022-07-30T02:16:50.397Z,100720.06
2022-07-30T02:20:59.810Z,100720.31
2022-07-30T02:25:07.677Z,100727.75
2022-07-30T02:29:12.352Z,100732.06
2022-07-30T02:33:20.294Z,100733.63
2022-07-30T02:37:40.994Z,100734.69
2022-07-30T02:41:49.954Z,100749.56
2022-07-30T02:45:54.846Z,100740.47
2022-07-30T02:50:06.439Z,100752.91
2022-07-30T02:54:12.622Z,100754.19
2022-07-30T02:58:18.430Z,100752.66
2022-07-30T03:02:25.637Z,100758.50
2022-07-30T03:06:34.725Z,100762.09
2022-07-30T03:10:38.659Z,100772.28
2022-07-30T03:14:42.001Z,100778.97
2022-07-30T03:18:46.552Z,100773.44
2022-07-30T03:22:54.464Z,100789.84
2022-07-30T03:27:01.008Z,100783.38
2022-07-30T03:31:05.779Z,100779.81
2022-07-30T03:35:16.750Z,100778.88
2022-07-30T03:39:24.398Z,100784.78
2022-07-30T03:43:33.094Z,100785.53
2022-07-30T03:47:39.740Z,100783.16
2022-07-30T03:51:43.572Z,100794.44
2022-07-30T03:55:48.528Z,100802.75
2022-07-30T04:00:15.167Z,100801.66
2022-07-30T04:04:23.722Z,100808.84
2022-07-30T04:08:28.910Z,100818.94
2022-07-30T04:12:33.712Z,100820.38
2022-07-30T04:16:44.197Z,100816.06
2022-07-30T04:20:53.105Z,100818.94
2022-07-30T04:24:57.675Z,100829.50
2022-07-30T04:29:04.573Z,100832.38
2022-07-30T04:33:08.989Z,100827.31
2022-07-30T04:37:12.006Z,100836.09
2022-07-30T04:41:15.496Z,100844.84
2022-07-30T04:45:40.386Z,100846.28
2022-07-30T04:49:44.771Z,100850.84
2022-07-30T04:53:50.040Z,100857.94
2022-07-30T04:57:56.152Z,100865.88
2022-07-30T05:02:01.636Z,100872.81
2022-07-30T05:06:06.710Z,100867.78
2022-07-30T05:10:13.825Z,100873.78
2022-07-30T05:14:18.037Z,100876.19
2022-07-30T05:18:23.288Z,100883.03
2022-07-30T05:22:30.018Z,100890.25
2022-07-30T05:26:33.220Z,100894.69
2022-07-30T05:30:36.629Z,100901.28
2022-07-30T05:34:41.339Z,100899.72
2022-07-30T05:38:44.413Z,100908.97
2022-07-30T05:43:07.763Z,100914.97
2022-07-30T05:47:10.933Z,100908.59
2022-07-30T05:51:17.042Z,100917.00
2022-07-30T05:55:20.402Z,100913.88
2022-07-30T05:59:30.884Z,100928.41
2022-07-30T06:03:46.592Z,100918.69
2022-07-30T06:08:10.290Z,100921.94
2022-07-30T06:12:13.560Z,100914.25
2022-07-30T06:16:17.584Z,100919.53
2022-07-30T06:20:22.171Z,100926.09
2022-07-30T06:24:49.186Z,100916.34
2022-07-30T06:28:59.246Z,100921.16
2022-07-30T06:33:06.398Z,100927.53
2022-07-30T06:37:09.455Z,100916.75
2022-07-30T06:41:15.752Z,100916.59
2022-07-30T06:45:28.376Z,100904.09
2022-07-30T06:49:52.308Z,100905.88
2022-07-30T06:53:55.407Z,100906.03
2022-07-30T06:58:25.815Z,100904.53
2022-07-30T07:02:52.687Z,100896.47
2022-07-30T07:07:12.177Z,100903.00
2022-07-30T07:11:15.997Z,100902.31
2022-07-30T07:15:36.338Z,100904.06
2022-07-30T07:20:01.036Z,100899.47
2022-07-30T07:24:05.516Z,100913.41
2022-07-30T07:28:41.411Z,100910.56
2022-07-30T07:32:45.895Z,100913.06
2022-07-30T07:36:50.116Z,100910.44
2022-07-30T07:40:53.273Z,100912.38
2022-07-30T07:44:56.333Z,100905.34
2022-07-30T07:49:01.653Z,100895.81
2022-07-30T07:53:19.055Z,100893.19
2022-07-30T07:57:22.745Z,100898.16
2022-07-30T08:01:25.898Z,100896.97
2022-07-30T08:05:59.051Z,100895.22
2022-07-30T08:10:28.787Z,100879.41
2022-07-30T08:14:50.419Z,100879.66
2022-07-30T08:19:12.235Z,100888.81
2022-07-30T08:23:27.125Z,100888.28
2022-07-30T08:27:30.957Z,100871.28
2022-07-30T08:31:34.153Z,100871.25
2022-07-30T08:35:38.056Z,100882.47
2022-07-30T08:39:53.111Z,100873.72
2022-07-30T08:43:57.072Z,100874.16
2022-07-30T08:48:02.107Z,100877.38
2022-07-30T08:52:16.610Z,100875.19
2022-07-30T08:56:34.146Z,100880.03
2022-07-30T09:00:37.235Z,100877.22
2022-07-30T09:04:40.400Z,100877.53
2022-07-30T09:08:43.681Z,100881.88
2022-07-30T09:12:48.876Z,100883.91
2022-07-30T09:16:57.803Z,100878.53
2022-07-30T09:21:02.977Z,100876.81
2022-07-30T09:25:06.292Z,100877.16
2022-07-30T09:29:33.977Z,100884.13
2022-07-30T09:33:55.916Z,100875.63
2022-07-30T09:38:17.967Z,100878.84
2022-07-30T09:42:41.171Z,100879.09
2022-07-30T09:46:51.841Z,100880.81
2022-07-30T09:51:16.148Z,100876.34
2022-07-30T09:55:31.995Z,100883.75
2022-07-30T09:59:36.427Z,100880.13
2022-07-30T10:03:44.369Z,100883.03
2022-07-30T10:08:19.345Z,100885.22
2022-07-30T10:12:26.630Z,100890.56
2022-07-30T10:16:30.725Z,100891.56
2022-07-30T10:20:36.664Z,100884.94
2022-07-30T10:24:58.920Z,100889.19
2022-07-30T10:29:22.067Z,100873.56
2022-07-30T10:33:40.250Z,100887.53
2022-07-30T10:37:49.462Z,100885.25
2022-07-30T10:42:04.718Z,100879.88
2022-07-30T10:46:22.892Z,100872.16
2022-07-30T10:50:27.628Z,100872.28
2022-07-30T10:54:44.600Z,100866.03
2022-07-30T10:59:07.734Z,100873.66
2022-07-30T11:03:23.594Z,100876.00
2022-07-30T11:07:44.711Z,100875.63
2022-07-30T11:12:15.889Z,100875.34
2022-07-30T11:16:15.415Z,100869.19
2022-07-30T11:20:21.090Z,100873.41
2022-07-30T11:24:45.399Z,100876.22
2022-07-30T11:28:51.113Z,100890.34
2022-07-30T11:32:56.687Z,100866.25
2022-07-30T11:37:18.182Z,100874.47
2022-07-30T11:41:26.426Z,100875.47
2022-07-30T11:45:30.976Z,100870.81
2022-07-30T11:49:36.921Z,100863.91
2022-07-30T11:53:39.954Z,100867.94
2022-07-30T11:57:44.264Z,100863.41
2022-07-30T12:01:52.649Z,100844.41
2022-07-30T12:05:56.277Z,100862.00
2022-07-30T12:10:13.693Z,100864.28
2022-07-30T12:14:19.266Z,100865.00
2022-07-30T12:18:28.409Z,100871.91
2022-07-30T12:22:35.903Z,100869.19
2022-07-30T12:26:39.181Z,100856.16
2022-07-30T12:30:42.586Z,100858.72
2022-07-30T12:34:56.856Z,100854.94
2022-07-30T12:39:00.276Z,100858.25
2022-07-30T12:43:03.353Z,100851.53
2022-07-30T12:47:19.137Z,100853.19
2022-07-30T12:51:25.543Z,100849.56
2022-07-30T12:55:33.256Z,100848.56
2022-07-30T12:59:38.811Z,100851.19
2022-07-30T13:03:43.186Z,100836.50
2022-07-30T13:07:58.863Z,100835.78
2022-07-30T13:12:02.016Z,100833.56
2022-07-30T13:16:06.918Z,100850.53
2022-07-30T13:20:11.555Z,100835.25
2022-07-30T13:24:17.897Z,100848.84
2022-07-30T13:28:21.807Z,100836.78
2022-07-30T13:32:24.804Z,100839.78
2022-07-30T13:36:28.120Z,100832.13
2022-07-30T13:40:33.176Z,100839.38
2022-07-30T13:44:36.282Z,100838.09
2022-07-30T13:48:39.911Z,100819.75
2022-07-30T13:52:43.054Z,100827.56
2022-07-30T13:56:47.574Z,100823.50
2022-07-30T14:00:51.187Z,100829.63
2022-07-30T14:04:57.329Z,100816.38
2022-07-30T14:09:04.669Z,100817.09
2022-07-30T14:13:19.440Z,100807.25
2022-07-30T14:17:29.434Z,100802.53
2022-07-30T14:21:36.674Z,100803.78
2022-07-30T14:25:45.304Z,100806.78
2022-07-30T14:29:55.438Z,100811.91
2022-07-30T14:34:02.226Z,100803.38
2022-07-30T14:38:08.195Z,100798.56
2022-07-30T14:42:14.560Z,100797.00
2022-07-30T14:46:23.805Z,100795.84
2022-07-30T14:50:30.506Z,100786.78
2022-07-30T14:54:37.059Z,100792.56
2022-07-30T14:58:44.691Z,100789.66
2022-07-30T15:02:52.378Z,100788.97
2022-07-30T15:06:58.037Z,100794.09
2022-07-30T15:11:05.903Z,100792.81
2022-07-30T15:15:14.713Z,100790.84
2022-07-30T15:19:23.732Z,100803.84
2022-07-30T15:23:31.070Z,100806.66
2022-07-30T15:27:38.762Z,100800.59
2022-07-30T15:31:47.213Z,100791.91
2022-07-30T15:35:57.907Z,100799.38
2022-07-30T15:40:04.553Z,100789.59
2022-07-30T15:44:15.363Z,100780.56
2022-07-30T15:48:27.402Z,100783.00
2022-07-30T15:52:40.552Z,100791.44
2022-07-30T15:56:50.916Z,100786.22
2022-07-30T16:00:58.873Z,100791.94
2022-07-30T16:05:05.498Z,100792.06
2022-07-30T16:09:18.570Z,100789.53
2022-07-30T16:13:26.730Z,100792.16
2022-07-30T16:17:34.650Z,100787.25
2022-07-30T16:21:42.274Z,100785.25
2022-07-30T16:25:49.334Z,100772.44
2022-07-30T16:29:56.577Z,100767.88
2022-07-30T16:34:03.787Z,100760.75
2022-07-30T16:38:11.663Z,100765.91
2022-07-30T16:42:24.967Z,100756.19
2022-07-30T16:46:33.086Z,100753.00
2022-07-30T16:50:41.665Z,100766.66
2022-07-30T16:54:48.811Z,100763.72
2022-07-30T16:58:58.658Z,100756.06
2022-07-30T17:03:07.136Z,100754.59
2022-07-30T17:07:14.341Z,100757.06
2022-07-30T17:11:47.669Z,100741.63
2022-07-30T17:15:53.858Z,100756.50
2022-07-30T17:20:03.437Z,100752.31
2022-07-30T17:24:15.225Z,100754.19
2022-07-30T17:28:27.074Z,100751.03
2022-07-30T17:32:37.964Z,100758.44
2022-07-30T17:36:52.285Z,100752.59
2022-07-30T17:41:03.016Z,100757.41
2022-07-30T17:45:13.197Z,100759.72
2022-07-30T17:49:26.221Z,100766.59
2022-07-30T17:53:35.117Z,100758.81
2022-07-30T17:57:43.827Z,100765.75
2022-07-30T18:01:55.040Z,100763.84
2022-07-30T18:06:05.579Z,100761.16
2022-07-30T18:10:16.096Z,100753.22
2022-07-30T18:14:25.108Z,100753.72
2022-07-30T18:18:33.192Z,100761.53
2022-07-30T18:22:43.263Z,100759.47
2022-07-30T18:26:51.004Z,100771.41
2022-07-30T18:30:56.605Z,100780.50
2022-07-30T18:35:00.909Z,100772.03
2022-07-30T18:39:06.954Z,100767.94
2022-07-30T18:43:11.200Z,100774.66
2022-07-30T18:47:15.387Z,100765.78
2022-07-30T18:51:19.337Z,100764.00
2022-07-30T18:55:25.131Z,100767.75
2022-07-30T18:59:33.533Z,100760.66
2022-07-30T19:03:41.421Z,100780.03
2022-07-30T19:07:57.153Z,100776.59
2022-07-30T19:12:10.724Z,100769.16
2022-07-30T19:16:20.023Z,100775.19
2022-07-30T19:20:28.618Z,100775.47
2022-07-30T19:24:38.062Z,100784.44
2022-07-30T19:28:47.742Z,100775.59
2022-07-30T19:32:54.642Z,100773.44
2022-07-30T19:37:02.355Z,100771.31
2022-07-30T19:41:08.574Z,100774.59
2022-07-30T19:45:16.171Z,100777.94
2022-07-30T19:49:22.997Z,100779.09
2022-07-30T19:53:40.333Z,100773.50
2022-07-30T19:57:54.324Z,100772.66
2022-07-30T20:02:05.859Z,100781.91
2022-07-30T20:06:15.519Z,100771.34
2022-07-30T20:10:20.023Z,100782.53
2022-07-30T20:14:25.838Z,100789.75
2022-07-30T20:18:33.409Z,100783.69
2022-07-30T20:22:40.961Z,100789.31
2022-07-30T20:26:48.161Z,100797.16
2022-07-30T20:30:53.990Z,100790.44
2022-07-30T20:35:07.177Z,100789.66
2022-07-30T20:39:18.527Z,100777.38
2022-07-30T20:43:26.072Z,100783.53
2022-07-30T20:47:38.732Z,100784.66
2022-07-30T20:51:49.459Z,100788.25
2022-07-30T20:55:58.273Z,100789.09
2022-07-30T21:00:09.972Z,100787.44
2022-07-30T21:04:23.781Z,100784.34
2022-07-30T21:08:47.425Z,100789.94
2022-07-30T21:17:26.897Z,100778.22
2022-07-30T21:21:41.719Z,100776.84
2022-07-30T21:26:13.370Z,100773.19
2022-07-30T21:30:20.472Z,100771.53
2022-07-30T21:34:40.095Z,100768.19
2022-07-30T21:38:52.893Z,100769.94
2022-07-30T21:43:03.051Z,100761.03
2022-07-30T21:47:17.285Z,100765.22
2022-07-30T21:51:27.292Z,100757.41
2022-07-30T21:55:52.890Z,100764.41
2022-07-30T22:00:01.691Z,100756.03
2022-07-30T22:04:19.335Z,100759.66
2022-07-30T22:08:30.452Z,100754.94
2022-07-30T22:12:45.650Z,100752.13
2022-07-30T22:16:53.932Z,100749.34
2022-07-30T22:21:02.648Z,100753.25
2022-07-30T22:25:11.649Z,100760.50
2022-07-30T22:29:18.306Z,100753.81
2022-07-30T22:33:30.027Z,100749.88
2022-07-30T22:37:42.352Z,100748.22
2022-07-30T22:41:52.933Z,100746.84
2022-07-30T22:46:02.132Z,100751.56
2022-07-30T22:50:11.751Z,100756.59
2022-07-30T22:54:20.530Z,100744.34
2022-07-30T22:58:31.293Z,100750.47
2022-07-30T23:02:39.153Z,100754.38
2022-07-30T23:06:49.952Z,100746.56
2022-07-30T23:11:00.241Z,100753.25
2022-07-30T23:12:26.913Z,100780.19
2022-07-30T23:15:07.718Z,100752.38
2022-07-30T23:19:22.036Z,100752.66
2022-07-30T23:23:37.275Z,100752.09
2022-07-30T23:27:48.780Z,100742.63
2022-07-30T23:31:56.240Z,100740.34
2022-07-30T23:36:07.339Z,100747.06
2022-07-30T23:40:20.663Z,100735.94
2022-07-30T23:44:36.770Z,100731.47
2022-07-30T23:48:46.043Z,100728.09
2022-07-30T23:52:55.835Z,100730.63
2022-07-30T23:57:08.125Z,100727.59
